AFR570 LFPG-HECA
Flight info
| Callsign | AFR570 |
|---|---|
| Flight time | 3h 50m |
| Altitude | 35000 |
| Route | OKASI DCT OKEKO DCT MOU DCT MADIV DCT MOKIP DCT TUFTA DCT KOGAS DCT MEDAM DCT NITAM DCT MOGBO DCT LATAN DCT TRL DCT SIT UL612 KUMBI L612 BLT |
| Aircraft | A359/H-SABDE2E3GHIJ1J2J3J4J5M1P2RWXYZ/LB1D1 |
Departure
| Time | 2026-05-05 07:30 |
|---|---|
| Airport | Charles de Gaulle International Airport (LFPG) |
Arrival
| Time | 2026-05-05 11:21 |
|---|---|
| Airport | Cairo International Airport (HECA) |
| Time | Latitude | Longitude | Altitude | Speed | Heading |
|---|---|---|---|---|---|
| 2026-05-05 06:42 | 49.01362 | 2.57700 | 364 ft | 0 kts | 175° |
| 2026-05-05 07:13 | 49.01367 | 2.57699 | 367 ft | 4 kts | 174° |
| 2026-05-05 07:13 | 49.01394 | 2.57692 | 363 ft | 4 kts | 163° |
| 2026-05-05 07:13 | 49.01419 | 2.57677 | 364 ft | 4 kts | 146° |
| 2026-05-05 07:14 | 49.01437 | 2.57650 | 365 ft | 4 kts | 108° |
| 2026-05-05 07:14 | 49.01439 | 2.57634 | 368 ft | 0 kts | 85° |
| 2026-05-05 07:19 | 49.01439 | 2.57639 | 365 ft | 1 kts | 85° |
| 2026-05-05 07:19 | 49.01441 | 2.57676 | 365 ft | 8 kts | 86° |
| 2026-05-05 07:20 | 49.01447 | 2.57788 | 366 ft | 12 kts | 83° |
| 2026-05-05 07:20 | 49.01479 | 2.57908 | 368 ft | 13 kts | 65° |
| 2026-05-05 07:20 | 49.01524 | 2.58018 | 369 ft | 11 kts | 17° |
| 2026-05-05 07:20 | 49.01600 | 2.58016 | 366 ft | 12 kts | 356° |
| 2026-05-05 07:21 | 49.01687 | 2.58006 | 361 ft | 13 kts | 356° |
| 2026-05-05 07:21 | 49.01785 | 2.57994 | 365 ft | 15 kts | 354° |
| 2026-05-05 07:21 | 49.01894 | 2.57962 | 364 ft | 17 kts | 337° |
| 2026-05-05 07:21 | 49.01978 | 2.57838 | 366 ft | 18 kts | 294° |
| 2026-05-05 07:22 | 49.01995 | 2.57644 | 362 ft | 20 kts | 268° |
| 2026-05-05 07:22 | 49.01986 | 2.57425 | 361 ft | 22 kts | 266° |
| 2026-05-05 07:22 | 49.01973 | 2.57186 | 363 ft | 23 kts | 264° |
| 2026-05-05 07:22 | 49.01960 | 2.56930 | 367 ft | 25 kts | 265° |
| 2026-05-05 07:23 | 49.01945 | 2.56656 | 367 ft | 26 kts | 265° |
| 2026-05-05 07:23 | 49.01931 | 2.56393 | 367 ft | 26 kts | 265° |
| 2026-05-05 07:23 | 49.01915 | 2.56111 | 363 ft | 27 kts | 265° |
| 2026-05-05 07:23 | 49.01899 | 2.55813 | 367 ft | 29 kts | 265° |
| 2026-05-05 07:24 | 49.01883 | 2.55500 | 363 ft | 30 kts | 266° |
| 2026-05-05 07:24 | 49.01869 | 2.55228 | 364 ft | 25 kts | 265° |
| 2026-05-05 07:24 | 49.01858 | 2.55016 | 363 ft | 17 kts | 266° |
| 2026-05-05 07:24 | 49.01905 | 2.54862 | 368 ft | 17 kts | 335° |
| 2026-05-05 07:25 | 49.02015 | 2.54809 | 366 ft | 12 kts | 309° |
| 2026-05-05 07:25 | 49.02021 | 2.54704 | 361 ft | 11 kts | 269° |
| 2026-05-05 07:25 | 49.02015 | 2.54573 | 366 ft | 14 kts | 264° |
| 2026-05-05 07:25 | 49.02005 | 2.54414 | 367 ft | 16 kts | 265° |
| 2026-05-05 07:26 | 49.01995 | 2.54246 | 368 ft | 15 kts | 261° |
| 2026-05-05 07:26 | 49.01931 | 2.54127 | 368 ft | 16 kts | 218° |
| 2026-05-05 07:26 | 49.01892 | 2.53965 | 366 ft | 18 kts | 265° |
| 2026-05-05 07:26 | 49.01882 | 2.53765 | 362 ft | 20 kts | 265° |
| 2026-05-05 07:27 | 49.01871 | 2.53542 | 363 ft | 22 kts | 266° |
| 2026-05-05 07:27 | 49.01853 | 2.53304 | 361 ft | 24 kts | 262° |
| 2026-05-05 07:27 | 49.01843 | 2.53060 | 366 ft | 12 kts | 266° |
| 2026-05-05 07:27 | 49.01838 | 2.52931 | 361 ft | 13 kts | 265° |
| 2026-05-05 07:28 | 49.01835 | 2.52820 | 361 ft | 9 kts | 281° |
| 2026-05-05 07:28 | 49.01884 | 2.52753 | 369 ft | 10 kts | 340° |
| 2026-05-05 07:28 | 49.01964 | 2.52737 | 366 ft | 12 kts | 354° |
| 2026-05-05 07:28 | 49.02055 | 2.52726 | 363 ft | 11 kts | 356° |
| 2026-05-05 07:29 | 49.02120 | 2.52752 | 370 ft | 10 kts | 41° |
| 2026-05-05 07:29 | 49.02144 | 2.52847 | 365 ft | 10 kts | 81° |
| 2026-05-05 07:29 | 49.02147 | 2.52880 | 368 ft | 0 kts | 83° |
| 2026-05-05 07:29 | 49.02148 | 2.52898 | 368 ft | 17 kts | 84° |
| 2026-05-05 07:30 | 49.02179 | 2.53466 | 365 ft | 88 kts | 85° |
| 2026-05-05 07:30 | 49.02339 | 2.56387 | 916 ft | 152 kts | 83° |
| 2026-05-05 07:30 | 49.02410 | 2.57952 | 1760 ft | 151 kts | 83° |
| 2026-05-05 07:31 | 49.02482 | 2.59647 | 2204 ft | 169 kts | 84° |
| 2026-05-05 07:31 | 49.02545 | 2.61533 | 2678 ft | 188 kts | 86° |
| 2026-05-05 07:31 | 49.02590 | 2.63640 | 3201 ft | 210 kts | 87° |
| 2026-05-05 07:31 | 49.02716 | 2.65986 | 3691 ft | 234 kts | 83° |
| 2026-05-05 07:32 | 49.02904 | 2.68537 | 4439 ft | 248 kts | 84° |
| 2026-05-05 07:32 | 49.03067 | 2.71180 | 5433 ft | 253 kts | 84° |
| 2026-05-05 07:32 | 49.03230 | 2.73875 | 6456 ft | 257 kts | 85° |
| 2026-05-05 07:32 | 49.03365 | 2.76629 | 7406 ft | 263 kts | 85° |
| 2026-05-05 07:33 | 49.03510 | 2.79444 | 8386 ft | 269 kts | 85° |
| 2026-05-05 07:33 | 49.03669 | 2.82300 | 9350 ft | 272 kts | 85° |
| 2026-05-05 07:33 | 49.03825 | 2.85180 | 10224 ft | 276 kts | 85° |
| 2026-05-05 07:33 | 49.03984 | 2.88194 | 10633 ft | 296 kts | 85° |
| 2026-05-05 07:34 | 49.04115 | 2.91421 | 11144 ft | 312 kts | 89° |
| 2026-05-05 07:34 | 49.03792 | 2.94709 | 11928 ft | 318 kts | 108° |
| 2026-05-05 07:34 | 49.02710 | 2.97670 | 12668 ft | 327 kts | 130° |
| 2026-05-05 07:34 | 49.00923 | 2.99830 | 13470 ft | 334 kts | 152° |
| 2026-05-05 07:35 | 48.98681 | 3.00817 | 14202 ft | 340 kts | 173° |
| 2026-05-05 07:35 | 48.96313 | 3.00927 | 15003 ft | 342 kts | 181° |
| 2026-05-05 07:35 | 48.93961 | 3.00343 | 15795 ft | 345 kts | 194° |
| 2026-05-05 07:35 | 48.91745 | 2.98885 | 16546 ft | 350 kts | 207° |
| 2026-05-05 07:36 | 48.89653 | 2.97038 | 17232 ft | 354 kts | 209° |
| 2026-05-05 07:36 | 48.87531 | 2.95107 | 17982 ft | 357 kts | 208° |
| 2026-05-05 07:36 | 48.85353 | 2.93142 | 18671 ft | 361 kts | 208° |
| 2026-05-05 07:36 | 48.83214 | 2.91228 | 19328 ft | 363 kts | 208° |
| 2026-05-05 07:37 | 48.81024 | 2.89279 | 20008 ft | 366 kts | 208° |
| 2026-05-05 07:37 | 48.78816 | 2.87321 | 20678 ft | 369 kts | 208° |
| 2026-05-05 07:37 | 48.76593 | 2.85353 | 21335 ft | 372 kts | 208° |
| 2026-05-05 07:37 | 48.74349 | 2.83371 | 22019 ft | 375 kts | 208° |
| 2026-05-05 07:38 | 48.72085 | 2.81374 | 22692 ft | 378 kts | 208° |
| 2026-05-05 07:38 | 48.69806 | 2.79367 | 23331 ft | 381 kts | 208° |
| 2026-05-05 07:38 | 48.67506 | 2.77343 | 23931 ft | 383 kts | 208° |
| 2026-05-05 07:38 | 48.65192 | 2.75310 | 24549 ft | 386 kts | 208° |
| 2026-05-05 07:39 | 48.62868 | 2.73269 | 25162 ft | 387 kts | 208° |
| 2026-05-05 07:39 | 48.60531 | 2.71219 | 25763 ft | 389 kts | 208° |
| 2026-05-05 07:39 | 48.58185 | 2.69164 | 26367 ft | 391 kts | 208° |
| 2026-05-05 07:39 | 48.55825 | 2.67099 | 26927 ft | 393 kts | 208° |
| 2026-05-05 07:40 | 48.53449 | 2.65023 | 27493 ft | 396 kts | 208° |
| 2026-05-05 07:40 | 48.50997 | 2.63132 | 28046 ft | 397 kts | 201° |
| 2026-05-05 07:40 | 48.48368 | 2.61864 | 28593 ft | 397 kts | 191° |
| 2026-05-05 07:40 | 48.45623 | 2.61364 | 29132 ft | 399 kts | 181° |
| 2026-05-05 07:41 | 48.42842 | 2.61456 | 29639 ft | 401 kts | 177° |
| 2026-05-05 07:41 | 48.40050 | 2.61679 | 30117 ft | 404 kts | 176° |
| 2026-05-05 07:41 | 48.37233 | 2.61907 | 30511 ft | 407 kts | 177° |
| 2026-05-05 07:41 | 48.34399 | 2.62129 | 30945 ft | 408 kts | 177° |
| 2026-05-05 07:42 | 48.31558 | 2.62368 | 31390 ft | 410 kts | 175° |
| 2026-05-05 07:42 | 48.28734 | 2.62993 | 31823 ft | 412 kts | 168° |
| 2026-05-05 07:42 | 48.26001 | 2.64293 | 32219 ft | 415 kts | 159° |
| 2026-05-05 07:42 | 48.23387 | 2.66156 | 32616 ft | 417 kts | 155° |
| 2026-05-05 07:43 | 48.20800 | 2.68158 | 32995 ft | 419 kts | 154° |
| 2026-05-05 07:43 | 48.18205 | 2.70173 | 33344 ft | 421 kts | 154° |
| 2026-05-05 07:43 | 48.15589 | 2.72193 | 33651 ft | 424 kts | 155° |
| 2026-05-05 07:43 | 48.12961 | 2.74214 | 33974 ft | 426 kts | 155° |
| 2026-05-05 07:44 | 48.10312 | 2.76244 | 34189 ft | 429 kts | 155° |
| 2026-05-05 07:44 | 48.07642 | 2.78285 | 34379 ft | 433 kts | 155° |
| 2026-05-05 07:44 | 48.04908 | 2.80219 | 34504 ft | 438 kts | 158° |
| 2026-05-05 07:44 | 48.02093 | 2.82013 | 34625 ft | 442 kts | 159° |
| 2026-05-05 07:45 | 47.96328 | 2.85519 | 34820 ft | 452 kts | 159° |
| 2026-05-05 07:45 | 47.90498 | 2.89112 | 34852 ft | 453 kts | 159° |
| 2026-05-05 07:46 | 47.84689 | 2.92765 | 34850 ft | 453 kts | 158° |
| 2026-05-05 07:46 | 47.78887 | 2.96434 | 34853 ft | 453 kts | 159° |
| 2026-05-05 07:47 | 47.73100 | 3.00085 | 34839 ft | 453 kts | 159° |
| 2026-05-05 07:47 | 47.67295 | 3.03733 | 34838 ft | 453 kts | 159° |
| 2026-05-05 07:48 | 47.61481 | 3.07377 | 34837 ft | 453 kts | 159° |
| 2026-05-05 07:48 | 47.55708 | 3.10986 | 34849 ft | 453 kts | 159° |
| 2026-05-05 07:49 | 47.49891 | 3.14616 | 34844 ft | 454 kts | 159° |
| 2026-05-05 07:49 | 47.44032 | 3.18259 | 34847 ft | 454 kts | 159° |
| 2026-05-05 07:50 | 47.38210 | 3.21870 | 34838 ft | 454 kts | 159° |
| 2026-05-05 07:50 | 47.32389 | 3.25473 | 34843 ft | 454 kts | 159° |
| 2026-05-05 07:51 | 47.26554 | 3.29075 | 34847 ft | 455 kts | 159° |
| 2026-05-05 07:51 | 47.20716 | 3.32672 | 34844 ft | 455 kts | 159° |
| 2026-05-05 07:52 | 47.14905 | 3.36242 | 34849 ft | 455 kts | 159° |
| 2026-05-05 07:52 | 47.09056 | 3.39829 | 34852 ft | 456 kts | 159° |
| 2026-05-05 07:53 | 47.03194 | 3.43414 | 34854 ft | 457 kts | 159° |
| 2026-05-05 07:53 | 46.97332 | 3.46991 | 34856 ft | 456 kts | 159° |
| 2026-05-05 07:54 | 46.91472 | 3.50558 | 34861 ft | 456 kts | 159° |
| 2026-05-05 07:54 | 46.85610 | 3.54119 | 34862 ft | 456 kts | 160° |
| 2026-05-05 07:55 | 46.79763 | 3.57695 | 34858 ft | 456 kts | 158° |
| 2026-05-05 07:55 | 46.74387 | 3.62665 | 34866 ft | 462 kts | 142° |
| 2026-05-05 07:56 | 46.70269 | 3.69907 | 34865 ft | 471 kts | 123° |
| 2026-05-05 07:56 | 46.67907 | 3.78869 | 34878 ft | 479 kts | 109° |
| 2026-05-05 07:57 | 46.66293 | 3.88296 | 34870 ft | 480 kts | 107° |
| 2026-05-05 07:57 | 46.64755 | 3.97760 | 34882 ft | 480 kts | 107° |
| 2026-05-05 07:58 | 46.63158 | 4.07192 | 34866 ft | 480 kts | 108° |
| 2026-05-05 07:58 | 46.61658 | 4.15808 | 34879 ft | 479 kts | 108° |
| 2026-05-05 07:59 | 46.60013 | 4.25172 | 34879 ft | 479 kts | 108° |
| 2026-05-05 07:59 | 46.58360 | 4.34543 | 34879 ft | 479 kts | 108° |
| 2026-05-05 08:00 | 46.56705 | 4.43901 | 34878 ft | 479 kts | 108° |
| 2026-05-05 08:00 | 46.55050 | 4.53214 | 34881 ft | 477 kts | 108° |
| 2026-05-05 08:01 | 46.53382 | 4.62542 | 34879 ft | 477 kts | 108° |
| 2026-05-05 08:01 | 46.51709 | 4.71856 | 34877 ft | 477 kts | 108° |
| 2026-05-05 08:02 | 46.50028 | 4.81160 | 34881 ft | 477 kts | 109° |
| 2026-05-05 08:02 | 46.48625 | 4.88895 | 34889 ft | 477 kts | 109° |
| 2026-05-05 08:03 | 46.46926 | 4.98212 | 34885 ft | 478 kts | 109° |
| 2026-05-05 08:03 | 46.45220 | 5.07526 | 34883 ft | 478 kts | 109° |
| 2026-05-05 08:04 | 46.43506 | 5.16864 | 34880 ft | 480 kts | 109° |
| 2026-05-05 08:04 | 46.41781 | 5.26198 | 34876 ft | 480 kts | 109° |
| 2026-05-05 08:05 | 46.40028 | 5.35557 | 34874 ft | 480 kts | 111° |
| 2026-05-05 08:05 | 46.37287 | 5.44217 | 34875 ft | 469 kts | 128° |
| 2026-05-05 08:06 | 46.33303 | 5.51621 | 34881 ft | 466 kts | 134° |
| 2026-05-05 08:06 | 46.29081 | 5.58736 | 34881 ft | 465 kts | 135° |
| 2026-05-05 08:07 | 46.24839 | 5.65801 | 34889 ft | 466 kts | 135° |
| 2026-05-05 08:07 | 46.20604 | 5.72895 | 34894 ft | 466 kts | 135° |
| 2026-05-05 08:08 | 46.16379 | 5.79995 | 34903 ft | 466 kts | 135° |
| 2026-05-05 08:08 | 46.12149 | 5.87096 | 34903 ft | 466 kts | 135° |
| 2026-05-05 08:09 | 46.07917 | 5.94181 | 34909 ft | 466 kts | 135° |
| 2026-05-05 08:09 | 46.03681 | 6.01250 | 34910 ft | 465 kts | 135° |
| 2026-05-05 08:10 | 45.99452 | 6.08289 | 34905 ft | 465 kts | 135° |
| 2026-05-05 08:10 | 45.95234 | 6.15288 | 34912 ft | 467 kts | 135° |
| 2026-05-05 08:11 | 45.90981 | 6.22331 | 34910 ft | 467 kts | 135° |
| 2026-05-05 08:11 | 45.86720 | 6.29355 | 34916 ft | 467 kts | 136° |
| 2026-05-05 08:12 | 45.82441 | 6.36366 | 34908 ft | 467 kts | 137° |
| 2026-05-05 08:12 | 45.77575 | 6.42383 | 34911 ft | 461 kts | 147° |
| 2026-05-05 08:13 | 45.72391 | 6.47771 | 34911 ft | 461 kts | 149° |
| 2026-05-05 08:13 | 45.67151 | 6.53043 | 34912 ft | 462 kts | 149° |
| 2026-05-05 08:14 | 45.61911 | 6.58316 | 34921 ft | 460 kts | 149° |
| 2026-05-05 08:14 | 45.56683 | 6.63606 | 34904 ft | 461 kts | 149° |
| 2026-05-05 08:15 | 45.51435 | 6.68908 | 34906 ft | 463 kts | 149° |
| 2026-05-05 08:15 | 45.46173 | 6.74212 | 34952 ft | 463 kts | 149° |
| 2026-05-05 08:16 | 45.40906 | 6.79508 | 34946 ft | 464 kts | 149° |
| 2026-05-05 08:16 | 45.35635 | 6.84794 | 34950 ft | 464 kts | 149° |
| 2026-05-05 08:17 | 45.30355 | 6.90075 | 34953 ft | 465 kts | 150° |
| 2026-05-05 08:17 | 45.25240 | 6.95733 | 34965 ft | 470 kts | 142° |
| 2026-05-05 08:18 | 45.20515 | 7.02067 | 34989 ft | 472 kts | 141° |
| 2026-05-05 08:18 | 45.15814 | 7.08563 | 34983 ft | 472 kts | 141° |
| 2026-05-05 08:19 | 45.11161 | 7.15163 | 34995 ft | 478 kts | 136° |
| 2026-05-05 08:19 | 45.07108 | 7.22719 | 34996 ft | 483 kts | 131° |
| 2026-05-05 08:20 | 45.03239 | 7.30493 | 34993 ft | 484 kts | 130° |
| 2026-05-05 08:20 | 44.99393 | 7.38289 | 34980 ft | 483 kts | 130° |
| 2026-05-05 08:21 | 44.95885 | 7.46449 | 34980 ft | 487 kts | 125° |
| 2026-05-05 08:21 | 44.92525 | 7.54771 | 34978 ft | 490 kts | 125° |
| 2026-05-05 08:22 | 44.89167 | 7.63149 | 34960 ft | 491 kts | 124° |
| 2026-05-05 08:22 | 44.85792 | 7.71533 | 34978 ft | 492 kts | 125° |
| 2026-05-05 08:23 | 44.82406 | 7.79902 | 34974 ft | 492 kts | 125° |
| 2026-05-05 08:23 | 44.79009 | 7.88263 | 34980 ft | 492 kts | 125° |
| 2026-05-05 08:24 | 44.75603 | 7.96618 | 34976 ft | 492 kts | 125° |
| 2026-05-05 08:24 | 44.72192 | 8.04961 | 34974 ft | 493 kts | 125° |
| 2026-05-05 08:25 | 44.68764 | 8.13323 | 34963 ft | 495 kts | 125° |
| 2026-05-05 08:25 | 44.65309 | 8.21724 | 34979 ft | 497 kts | 125° |
| 2026-05-05 08:26 | 44.61845 | 8.30127 | 34979 ft | 497 kts | 125° |
| 2026-05-05 08:26 | 44.58401 | 8.38458 | 34977 ft | 497 kts | 125° |
| 2026-05-05 08:27 | 44.54926 | 8.46834 | 34976 ft | 497 kts | 125° |
| 2026-05-05 08:27 | 44.51449 | 8.55192 | 34969 ft | 496 kts | 125° |
| 2026-05-05 08:28 | 44.47968 | 8.63534 | 34966 ft | 496 kts | 125° |
| 2026-05-05 08:28 | 44.44478 | 8.71874 | 34948 ft | 496 kts | 126° |
| 2026-05-05 08:29 | 44.40982 | 8.80201 | 34960 ft | 496 kts | 125° |
| 2026-05-05 08:30 | 44.35903 | 8.92260 | 34967 ft | 496 kts | 125° |
| 2026-05-05 08:30 | 44.32394 | 9.00561 | 34964 ft | 496 kts | 126° |
| 2026-05-05 08:31 | 44.28881 | 9.08846 | 34953 ft | 496 kts | 126° |
| 2026-05-05 08:31 | 44.25362 | 9.17119 | 34949 ft | 496 kts | 125° |
| 2026-05-05 08:32 | 44.21830 | 9.25402 | 34948 ft | 498 kts | 126° |
| 2026-05-05 08:32 | 44.18866 | 9.32332 | 34948 ft | 500 kts | 125° |
| 2026-05-05 08:33 | 44.15300 | 9.40652 | 34944 ft | 500 kts | 126° |
| 2026-05-05 08:33 | 44.11730 | 9.48955 | 34941 ft | 500 kts | 125° |
| 2026-05-05 08:34 | 44.08158 | 9.57241 | 34956 ft | 499 kts | 125° |
| 2026-05-05 08:34 | 44.04580 | 9.65513 | 34956 ft | 499 kts | 126° |
| 2026-05-05 08:35 | 44.01000 | 9.73769 | 34963 ft | 499 kts | 126° |
| 2026-05-05 08:35 | 43.97406 | 9.82031 | 34963 ft | 502 kts | 126° |
| 2026-05-05 08:36 | 43.93788 | 9.90323 | 34965 ft | 502 kts | 125° |
| 2026-05-05 08:36 | 43.90166 | 9.98606 | 34970 ft | 502 kts | 126° |
| 2026-05-05 08:37 | 43.86541 | 10.06872 | 34966 ft | 502 kts | 126° |
| 2026-05-05 08:37 | 43.82910 | 10.15125 | 34981 ft | 502 kts | 126° |
| 2026-05-05 08:38 | 43.79272 | 10.23369 | 34981 ft | 501 kts | 125° |
| 2026-05-05 08:38 | 43.75665 | 10.31522 | 34977 ft | 500 kts | 126° |
| 2026-05-05 08:39 | 43.72020 | 10.39738 | 35000 ft | 503 kts | 126° |
| 2026-05-05 08:39 | 43.68355 | 10.47972 | 34982 ft | 503 kts | 126° |
| 2026-05-05 08:40 | 43.64683 | 10.56203 | 35000 ft | 503 kts | 126° |
| 2026-05-05 08:40 | 43.61002 | 10.64427 | 35002 ft | 504 kts | 126° |
| 2026-05-05 08:41 | 43.57315 | 10.72645 | 35021 ft | 504 kts | 126° |
| 2026-05-05 08:41 | 43.53625 | 10.80844 | 35011 ft | 504 kts | 126° |
| 2026-05-05 08:42 | 43.49925 | 10.89044 | 35018 ft | 504 kts | 126° |
| 2026-05-05 08:42 | 43.46212 | 10.97247 | 35018 ft | 505 kts | 126° |
| 2026-05-05 08:43 | 43.42485 | 11.05457 | 35027 ft | 506 kts | 126° |
| 2026-05-05 08:43 | 43.38755 | 11.13656 | 35025 ft | 506 kts | 126° |
| 2026-05-05 08:44 | 43.35018 | 11.21845 | 35025 ft | 506 kts | 126° |
| 2026-05-05 08:44 | 43.31277 | 11.30020 | 35027 ft | 506 kts | 126° |
| 2026-05-05 08:45 | 43.27526 | 11.38189 | 35015 ft | 506 kts | 126° |
| 2026-05-05 08:45 | 43.23769 | 11.46356 | 35024 ft | 507 kts | 126° |
| 2026-05-05 08:46 | 43.19991 | 11.54541 | 35028 ft | 509 kts | 126° |
| 2026-05-05 08:46 | 43.16200 | 11.62732 | 35032 ft | 509 kts | 127° |
| 2026-05-05 08:47 | 43.12406 | 11.70907 | 35031 ft | 508 kts | 126° |
| 2026-05-05 08:47 | 43.08611 | 11.79063 | 35040 ft | 508 kts | 126° |
| 2026-05-05 08:48 | 43.04810 | 11.87209 | 35046 ft | 508 kts | 127° |
| 2026-05-05 08:48 | 43.01005 | 11.95342 | 35053 ft | 508 kts | 127° |
| 2026-05-05 08:49 | 42.97835 | 12.02100 | 35047 ft | 510 kts | 127° |
| 2026-05-05 08:49 | 42.93375 | 12.11580 | 35066 ft | 511 kts | 127° |
| 2026-05-05 08:50 | 42.89529 | 12.19731 | 35065 ft | 511 kts | 127° |
| 2026-05-05 08:50 | 42.85678 | 12.27872 | 35062 ft | 511 kts | 127° |
| 2026-05-05 08:51 | 42.82449 | 12.34681 | 35068 ft | 511 kts | 127° |
| 2026-05-05 08:51 | 42.78591 | 12.42795 | 35079 ft | 511 kts | 127° |
| 2026-05-05 08:52 | 42.74718 | 12.50915 | 35076 ft | 512 kts | 127° |
| 2026-05-05 08:52 | 42.70832 | 12.59047 | 35075 ft | 514 kts | 128° |
| 2026-05-05 08:53 | 42.66919 | 12.67203 | 35091 ft | 516 kts | 128° |
| 2026-05-05 08:53 | 42.63001 | 12.75357 | 35109 ft | 516 kts | 128° |
| 2026-05-05 08:54 | 42.59101 | 12.83453 | 35112 ft | 516 kts | 128° |
| 2026-05-05 08:54 | 42.55169 | 12.91587 | 35119 ft | 516 kts | 128° |
| 2026-05-05 08:55 | 42.51230 | 12.99713 | 35123 ft | 516 kts | 128° |
| 2026-05-05 08:55 | 42.47287 | 13.07825 | 35098 ft | 515 kts | 128° |
| 2026-05-05 08:56 | 42.43324 | 13.15952 | 35081 ft | 518 kts | 128° |
| 2026-05-05 08:56 | 42.39348 | 13.24091 | 35080 ft | 518 kts | 128° |
| 2026-05-05 08:57 | 42.35364 | 13.32226 | 35083 ft | 519 kts | 129° |
| 2026-05-05 08:57 | 42.31373 | 13.40352 | 35090 ft | 519 kts | 129° |
| 2026-05-05 08:58 | 42.27391 | 13.48477 | 35087 ft | 519 kts | 129° |
| 2026-05-05 08:58 | 42.23377 | 13.56592 | 35080 ft | 521 kts | 129° |
| 2026-05-05 08:59 | 42.19340 | 13.64739 | 35078 ft | 524 kts | 129° |
| 2026-05-05 08:59 | 42.15268 | 13.72922 | 35084 ft | 526 kts | 129° |
| 2026-05-05 09:00 | 42.11184 | 13.81115 | 35048 ft | 526 kts | 129° |
| 2026-05-05 09:00 | 42.07107 | 13.89281 | 35075 ft | 527 kts | 129° |
| 2026-05-05 09:01 | 42.02997 | 13.97486 | 35070 ft | 529 kts | 129° |
| 2026-05-05 09:01 | 41.98874 | 14.05701 | 35075 ft | 530 kts | 129° |
| 2026-05-05 09:02 | 41.94751 | 14.13893 | 35072 ft | 529 kts | 129° |
| 2026-05-05 09:02 | 41.90626 | 14.22067 | 35055 ft | 529 kts | 129° |
| 2026-05-05 09:03 | 41.86485 | 14.30243 | 35072 ft | 530 kts | 129° |
| 2026-05-05 09:03 | 41.82334 | 14.38422 | 35071 ft | 531 kts | 129° |
| 2026-05-05 09:04 | 41.78174 | 14.46599 | 35070 ft | 531 kts | 129° |
| 2026-05-05 09:04 | 41.74008 | 14.54764 | 35066 ft | 530 kts | 129° |
| 2026-05-05 09:05 | 41.69842 | 14.62908 | 35067 ft | 530 kts | 129° |
| 2026-05-05 09:05 | 41.65666 | 14.71048 | 35065 ft | 530 kts | 129° |
| 2026-05-05 09:06 | 41.61513 | 14.79122 | 35070 ft | 531 kts | 129° |
| 2026-05-05 09:06 | 41.57324 | 14.87243 | 35083 ft | 531 kts | 129° |
| 2026-05-05 09:07 | 41.53134 | 14.95350 | 35086 ft | 531 kts | 128° |
| 2026-05-05 09:07 | 41.48927 | 15.03460 | 35073 ft | 532 kts | 128° |
| 2026-05-05 09:08 | 41.44712 | 15.11569 | 35068 ft | 532 kts | 128° |
| 2026-05-05 09:08 | 41.40495 | 15.19660 | 35071 ft | 532 kts | 129° |
| 2026-05-05 09:09 | 41.36273 | 15.27735 | 35074 ft | 530 kts | 128° |
| 2026-05-05 09:09 | 41.32058 | 15.35782 | 35078 ft | 530 kts | 128° |
| 2026-05-05 09:10 | 41.27833 | 15.43827 | 35079 ft | 530 kts | 128° |
| 2026-05-05 09:10 | 41.23604 | 15.51854 | 35077 ft | 530 kts | 128° |
| 2026-05-05 09:11 | 41.19372 | 15.59868 | 35077 ft | 530 kts | 128° |
| 2026-05-05 09:11 | 41.15134 | 15.67871 | 35080 ft | 530 kts | 128° |
| 2026-05-05 09:12 | 41.10894 | 15.75857 | 35080 ft | 529 kts | 128° |
| 2026-05-05 09:12 | 41.06650 | 15.83829 | 35084 ft | 529 kts | 128° |
| 2026-05-05 09:13 | 41.02404 | 15.91787 | 35082 ft | 529 kts | 128° |
| 2026-05-05 09:13 | 40.98154 | 15.99732 | 35089 ft | 529 kts | 128° |
| 2026-05-05 09:14 | 40.93896 | 16.07668 | 35081 ft | 528 kts | 127° |
| 2026-05-05 09:14 | 40.89642 | 16.15581 | 35074 ft | 528 kts | 127° |
| 2026-05-05 09:15 | 40.85410 | 16.23431 | 35072 ft | 528 kts | 128° |
| 2026-05-05 09:15 | 40.81141 | 16.31329 | 35071 ft | 528 kts | 127° |
| 2026-05-05 09:16 | 40.76875 | 16.39200 | 35105 ft | 527 kts | 127° |
| 2026-05-05 09:16 | 40.72614 | 16.47044 | 35101 ft | 525 kts | 127° |
| 2026-05-05 09:17 | 40.68352 | 16.54872 | 35137 ft | 525 kts | 127° |
| 2026-05-05 09:17 | 40.64086 | 16.62684 | 35158 ft | 525 kts | 127° |
| 2026-05-05 09:18 | 40.60716 | 16.68845 | 35169 ft | 525 kts | 127° |
| 2026-05-05 09:18 | 40.56550 | 16.76440 | 35178 ft | 524 kts | 127° |
| 2026-05-05 09:19 | 40.52282 | 16.84203 | 35165 ft | 524 kts | 127° |
| 2026-05-05 09:19 | 40.48013 | 16.91947 | 35107 ft | 523 kts | 127° |
| 2026-05-05 09:20 | 40.43745 | 16.99672 | 35109 ft | 523 kts | 127° |
| 2026-05-05 09:20 | 40.39472 | 17.07387 | 35108 ft | 522 kts | 127° |
| 2026-05-05 09:21 | 40.35203 | 17.15076 | 35107 ft | 521 kts | 127° |
| 2026-05-05 09:21 | 40.30938 | 17.22738 | 35103 ft | 520 kts | 127° |
| 2026-05-05 09:22 | 40.26667 | 17.30392 | 35104 ft | 520 kts | 127° |
| 2026-05-05 09:22 | 40.22418 | 17.37988 | 35104 ft | 520 kts | 127° |
| 2026-05-05 09:23 | 40.18151 | 17.45600 | 35108 ft | 519 kts | 127° |
| 2026-05-05 09:23 | 40.13851 | 17.53250 | 35109 ft | 519 kts | 127° |
| 2026-05-05 09:24 | 40.09606 | 17.60785 | 35112 ft | 519 kts | 127° |
| 2026-05-05 09:24 | 40.05323 | 17.68367 | 35109 ft | 519 kts | 127° |
| 2026-05-05 09:25 | 40.01034 | 17.75944 | 35110 ft | 519 kts | 127° |
| 2026-05-05 09:25 | 39.96753 | 17.83488 | 35109 ft | 518 kts | 127° |
| 2026-05-05 09:26 | 39.92461 | 17.91033 | 35118 ft | 517 kts | 127° |
| 2026-05-05 09:26 | 39.88173 | 17.98554 | 35115 ft | 517 kts | 127° |
| 2026-05-05 09:27 | 39.83878 | 18.06067 | 35116 ft | 517 kts | 127° |
| 2026-05-05 09:27 | 39.79583 | 18.13563 | 35122 ft | 517 kts | 127° |
| 2026-05-05 09:28 | 39.75284 | 18.21050 | 35123 ft | 517 kts | 127° |
| 2026-05-05 09:28 | 39.70980 | 18.28527 | 35125 ft | 517 kts | 127° |
| 2026-05-05 09:29 | 39.66670 | 18.35996 | 35125 ft | 517 kts | 127° |
| 2026-05-05 09:29 | 39.62354 | 18.43458 | 35139 ft | 517 kts | 127° |
| 2026-05-05 09:30 | 39.58033 | 18.50910 | 35127 ft | 517 kts | 127° |
| 2026-05-05 09:30 | 39.53703 | 18.58362 | 35134 ft | 518 kts | 127° |
| 2026-05-05 09:31 | 39.49365 | 18.65810 | 35129 ft | 518 kts | 127° |
| 2026-05-05 09:31 | 39.45023 | 18.73247 | 35131 ft | 518 kts | 127° |
| 2026-05-05 09:32 | 39.40678 | 18.80670 | 35134 ft | 518 kts | 127° |
| 2026-05-05 09:32 | 39.36354 | 18.88043 | 35133 ft | 518 kts | 127° |
| 2026-05-05 09:33 | 39.31996 | 18.95456 | 35132 ft | 518 kts | 127° |
| 2026-05-05 09:33 | 39.27653 | 19.02874 | 35140 ft | 518 kts | 126° |
| 2026-05-05 09:34 | 39.23539 | 19.10493 | 35138 ft | 518 kts | 124° |
| 2026-05-05 09:34 | 39.19485 | 19.18176 | 35140 ft | 518 kts | 124° |
| 2026-05-05 09:35 | 39.15399 | 19.25815 | 35138 ft | 518 kts | 124° |
| 2026-05-05 09:35 | 39.09891 | 19.35986 | 35139 ft | 517 kts | 124° |
| 2026-05-05 09:36 | 39.05761 | 19.43575 | 35145 ft | 517 kts | 124° |
| 2026-05-05 09:36 | 39.01627 | 19.51154 | 35146 ft | 518 kts | 124° |
| 2026-05-05 09:37 | 38.97488 | 19.58730 | 35152 ft | 518 kts | 124° |
| 2026-05-05 09:37 | 38.93345 | 19.66297 | 35154 ft | 518 kts | 124° |
| 2026-05-05 09:38 | 38.89195 | 19.73858 | 35158 ft | 518 kts | 124° |
| 2026-05-05 09:38 | 38.85040 | 19.81408 | 35157 ft | 518 kts | 124° |
| 2026-05-05 09:39 | 38.80880 | 19.88953 | 35157 ft | 518 kts | 124° |
| 2026-05-05 09:39 | 38.76743 | 19.96437 | 35156 ft | 518 kts | 124° |
| 2026-05-05 09:40 | 38.72572 | 20.03966 | 35156 ft | 518 kts | 124° |
| 2026-05-05 09:40 | 38.68400 | 20.11478 | 35146 ft | 518 kts | 124° |
| 2026-05-05 09:41 | 38.64220 | 20.18987 | 35157 ft | 518 kts | 124° |
| 2026-05-05 09:41 | 38.60035 | 20.26489 | 35159 ft | 518 kts | 124° |
| 2026-05-05 09:42 | 38.55845 | 20.33982 | 35162 ft | 518 kts | 124° |
| 2026-05-05 09:42 | 38.51651 | 20.41465 | 35162 ft | 518 kts | 124° |
| 2026-05-05 09:43 | 38.47449 | 20.48945 | 35168 ft | 518 kts | 124° |
| 2026-05-05 09:43 | 38.43242 | 20.56416 | 35161 ft | 519 kts | 124° |
| 2026-05-05 09:44 | 38.39028 | 20.63884 | 35149 ft | 519 kts | 124° |
| 2026-05-05 09:44 | 38.34814 | 20.71334 | 35161 ft | 518 kts | 124° |
| 2026-05-05 09:45 | 38.30598 | 20.78771 | 35161 ft | 518 kts | 125° |
| 2026-05-05 09:45 | 38.26376 | 20.86201 | 35163 ft | 519 kts | 124° |
| 2026-05-05 09:46 | 38.22143 | 20.93634 | 35160 ft | 519 kts | 125° |
| 2026-05-05 09:46 | 38.17899 | 21.01068 | 35161 ft | 519 kts | 125° |
| 2026-05-05 09:47 | 38.13658 | 21.08480 | 35155 ft | 519 kts | 125° |
| 2026-05-05 09:47 | 38.09410 | 21.15888 | 35171 ft | 519 kts | 125° |
| 2026-05-05 09:48 | 38.05150 | 21.23302 | 35150 ft | 520 kts | 125° |
| 2026-05-05 09:48 | 38.00884 | 21.30708 | 35155 ft | 520 kts | 125° |
| 2026-05-05 09:49 | 37.96618 | 21.38098 | 35156 ft | 519 kts | 125° |
| 2026-05-05 09:49 | 37.92348 | 21.45477 | 35155 ft | 519 kts | 125° |
| 2026-05-05 09:50 | 37.88103 | 21.52797 | 35155 ft | 519 kts | 125° |
| 2026-05-05 09:50 | 37.83825 | 21.60159 | 35149 ft | 519 kts | 125° |
| 2026-05-05 09:51 | 37.79513 | 21.67562 | 35148 ft | 519 kts | 125° |
| 2026-05-05 09:51 | 37.75256 | 21.74854 | 35148 ft | 519 kts | 125° |
| 2026-05-05 09:52 | 37.70968 | 21.82182 | 35145 ft | 519 kts | 125° |
| 2026-05-05 09:52 | 37.66671 | 21.89510 | 35146 ft | 519 kts | 125° |
| 2026-05-05 09:53 | 37.62367 | 21.96835 | 35138 ft | 519 kts | 125° |
| 2026-05-05 09:53 | 37.58057 | 22.04151 | 35139 ft | 519 kts | 125° |
| 2026-05-05 09:54 | 37.53748 | 22.11453 | 35135 ft | 519 kts | 126° |
| 2026-05-05 09:54 | 37.49430 | 22.18751 | 35137 ft | 520 kts | 125° |
| 2026-05-05 09:55 | 37.45099 | 22.26055 | 35128 ft | 520 kts | 125° |
| 2026-05-05 09:55 | 37.40766 | 22.33349 | 35120 ft | 521 kts | 125° |
| 2026-05-05 09:56 | 37.36476 | 22.40691 | 35123 ft | 520 kts | 124° |
| 2026-05-05 09:56 | 37.32260 | 22.48080 | 35128 ft | 520 kts | 124° |
| 2026-05-05 09:57 | 37.28027 | 22.55478 | 35126 ft | 522 kts | 124° |
| 2026-05-05 09:57 | 37.23774 | 22.62858 | 35121 ft | 522 kts | 124° |
| 2026-05-05 09:58 | 37.19510 | 22.70227 | 35121 ft | 522 kts | 124° |
| 2026-05-05 09:58 | 37.15245 | 22.77582 | 35126 ft | 521 kts | 124° |
| 2026-05-05 09:59 | 37.10979 | 22.84923 | 35124 ft | 521 kts | 124° |
| 2026-05-05 09:59 | 37.06728 | 22.92221 | 35126 ft | 522 kts | 124° |
| 2026-05-05 10:00 | 37.02439 | 22.99570 | 35127 ft | 523 kts | 125° |
| 2026-05-05 10:00 | 36.98114 | 23.06963 | 35129 ft | 523 kts | 125° |
| 2026-05-05 10:01 | 36.93810 | 23.14304 | 35128 ft | 523 kts | 125° |
| 2026-05-05 10:01 | 36.89532 | 23.21587 | 35127 ft | 524 kts | 125° |
| 2026-05-05 10:02 | 36.85187 | 23.28966 | 35127 ft | 524 kts | 125° |
| 2026-05-05 10:02 | 36.80944 | 23.36156 | 35126 ft | 524 kts | 125° |
| 2026-05-05 10:03 | 36.76623 | 23.43466 | 35138 ft | 524 kts | 125° |
| 2026-05-05 10:03 | 36.72292 | 23.50782 | 35127 ft | 524 kts | 125° |
| 2026-05-05 10:04 | 36.67955 | 23.58089 | 35127 ft | 525 kts | 125° |
| 2026-05-05 10:04 | 36.63600 | 23.65406 | 35130 ft | 526 kts | 125° |
| 2026-05-05 10:05 | 36.59244 | 23.72709 | 35129 ft | 526 kts | 125° |
| 2026-05-05 10:05 | 36.54878 | 23.80012 | 35130 ft | 526 kts | 125° |
| 2026-05-05 10:06 | 36.50507 | 23.87310 | 35129 ft | 526 kts | 125° |
| 2026-05-05 10:06 | 36.46132 | 23.94598 | 35129 ft | 526 kts | 125° |
| 2026-05-05 10:07 | 36.41752 | 24.01878 | 35129 ft | 526 kts | 125° |
| 2026-05-05 10:07 | 36.37368 | 24.09149 | 35147 ft | 526 kts | 125° |
| 2026-05-05 10:08 | 36.32985 | 24.16404 | 35129 ft | 526 kts | 126° |
| 2026-05-05 10:08 | 36.28585 | 24.23673 | 35130 ft | 527 kts | 126° |
| 2026-05-05 10:09 | 36.24181 | 24.30930 | 35129 ft | 527 kts | 126° |
| 2026-05-05 10:09 | 36.19771 | 24.38183 | 35130 ft | 527 kts | 126° |
| 2026-05-05 10:10 | 36.15365 | 24.45413 | 35131 ft | 525 kts | 126° |
| 2026-05-05 10:10 | 36.10971 | 24.52610 | 35129 ft | 524 kts | 126° |
| 2026-05-05 10:11 | 36.06576 | 24.59792 | 35129 ft | 524 kts | 126° |
| 2026-05-05 10:11 | 36.02174 | 24.66971 | 35131 ft | 524 kts | 126° |
| 2026-05-05 10:12 | 35.97765 | 24.74147 | 35123 ft | 526 kts | 126° |
| 2026-05-05 10:12 | 35.93361 | 24.81300 | 35127 ft | 527 kts | 126° |
| 2026-05-05 10:13 | 35.88919 | 24.88498 | 35129 ft | 527 kts | 126° |
| 2026-05-05 10:13 | 35.84473 | 24.95688 | 35129 ft | 527 kts | 126° |
| 2026-05-05 10:14 | 35.80022 | 25.02872 | 35135 ft | 527 kts | 126° |
| 2026-05-05 10:14 | 35.75574 | 25.10037 | 35124 ft | 526 kts | 127° |
| 2026-05-05 10:15 | 35.71122 | 25.17192 | 35127 ft | 526 kts | 127° |
| 2026-05-05 10:15 | 35.66666 | 25.24340 | 35127 ft | 526 kts | 127° |
| 2026-05-05 10:16 | 35.62209 | 25.31475 | 35124 ft | 526 kts | 127° |
| 2026-05-05 10:16 | 35.57749 | 25.38598 | 35124 ft | 525 kts | 127° |
| 2026-05-05 10:17 | 35.53294 | 25.45700 | 35124 ft | 525 kts | 127° |
| 2026-05-05 10:17 | 35.48839 | 25.52788 | 35121 ft | 525 kts | 127° |
| 2026-05-05 10:18 | 35.44376 | 25.59872 | 35121 ft | 524 kts | 127° |
| 2026-05-05 10:18 | 35.39912 | 25.66945 | 35125 ft | 523 kts | 127° |
| 2026-05-05 10:19 | 35.35461 | 25.73983 | 35119 ft | 522 kts | 127° |
| 2026-05-05 10:19 | 35.31013 | 25.81003 | 35116 ft | 521 kts | 127° |
| 2026-05-05 10:20 | 35.29540 | 25.83324 | 35101 ft | 522 kts | 127° |
| 2026-05-05 10:21 | 35.13811 | 26.08014 | 35112 ft | 523 kts | 128° |
| 2026-05-05 10:22 | 35.09336 | 26.15007 | 35104 ft | 523 kts | 128° |
| 2026-05-05 10:22 | 35.05146 | 26.22255 | 35105 ft | 522 kts | 122° |
| 2026-05-05 10:23 | 35.01272 | 26.29733 | 35090 ft | 521 kts | 121° |
| 2026-05-05 10:23 | 34.97449 | 26.37228 | 35112 ft | 520 kts | 121° |
| 2026-05-05 10:24 | 34.93629 | 26.44700 | 35106 ft | 519 kts | 121° |
| 2026-05-05 10:24 | 34.89791 | 26.52175 | 35100 ft | 523 kts | 122° |
| 2026-05-05 10:25 | 34.85911 | 26.59701 | 35104 ft | 525 kts | 122° |
| 2026-05-05 10:25 | 34.82031 | 26.67209 | 35103 ft | 524 kts | 122° |
| 2026-05-05 10:26 | 34.78152 | 26.74702 | 35099 ft | 523 kts | 122° |
| 2026-05-05 10:26 | 34.74268 | 26.82189 | 35099 ft | 523 kts | 122° |
| 2026-05-05 10:27 | 34.70380 | 26.89668 | 35089 ft | 523 kts | 122° |
| 2026-05-05 10:27 | 34.66496 | 26.97124 | 35086 ft | 522 kts | 122° |
| 2026-05-05 10:28 | 34.62613 | 27.04562 | 35088 ft | 522 kts | 122° |
| 2026-05-05 10:28 | 34.58724 | 27.11995 | 35101 ft | 521 kts | 122° |
| 2026-05-05 10:29 | 34.54831 | 27.19420 | 35091 ft | 521 kts | 122° |
| 2026-05-05 10:29 | 34.50942 | 27.26824 | 35094 ft | 520 kts | 122° |
| 2026-05-05 10:30 | 34.47047 | 27.34223 | 35098 ft | 522 kts | 123° |
| 2026-05-05 10:30 | 34.43125 | 27.41657 | 35094 ft | 524 kts | 123° |
| 2026-05-05 10:31 | 34.39222 | 27.49039 | 35096 ft | 524 kts | 123° |
| 2026-05-05 10:31 | 34.35296 | 27.56452 | 35079 ft | 523 kts | 123° |
| 2026-05-05 10:32 | 34.31342 | 27.63900 | 35082 ft | 523 kts | 123° |
| 2026-05-05 10:32 | 34.27435 | 27.71244 | 35101 ft | 523 kts | 123° |
| 2026-05-05 10:33 | 34.23498 | 27.78630 | 35097 ft | 523 kts | 123° |
| 2026-05-05 10:33 | 34.19558 | 27.86007 | 35076 ft | 522 kts | 123° |
| 2026-05-05 10:34 | 34.15614 | 27.93375 | 35083 ft | 522 kts | 123° |
| 2026-05-05 10:34 | 34.11666 | 28.00738 | 35097 ft | 522 kts | 123° |
| 2026-05-05 10:35 | 34.07715 | 28.08088 | 35100 ft | 522 kts | 123° |
| 2026-05-05 10:35 | 34.03754 | 28.15444 | 35090 ft | 525 kts | 123° |
| 2026-05-05 10:36 | 33.99765 | 28.22836 | 35086 ft | 526 kts | 123° |
| 2026-05-05 10:36 | 33.95768 | 28.30227 | 35089 ft | 526 kts | 123° |
| 2026-05-05 10:37 | 33.91768 | 28.37611 | 35094 ft | 526 kts | 124° |
| 2026-05-05 10:38 | 33.83577 | 28.52682 | 35086 ft | 525 kts | 124° |
| 2026-05-05 10:38 | 33.79579 | 28.60014 | 35086 ft | 524 kts | 124° |
| 2026-05-05 10:39 | 33.75573 | 28.67348 | 35097 ft | 524 kts | 124° |
| 2026-05-05 10:39 | 33.71435 | 28.74533 | 35091 ft | 522 kts | 132° |
| 2026-05-05 10:40 | 33.66370 | 28.80719 | 35087 ft | 519 kts | 139° |
| 2026-05-05 10:40 | 33.61122 | 28.86618 | 35084 ft | 522 kts | 140° |
| 2026-05-05 10:41 | 33.55775 | 28.92548 | 35080 ft | 524 kts | 140° |
| 2026-05-05 10:41 | 33.50435 | 28.98493 | 35085 ft | 523 kts | 140° |
| 2026-05-05 10:42 | 33.42467 | 29.07385 | 35083 ft | 522 kts | 140° |
| 2026-05-05 10:43 | 33.37156 | 29.13301 | 35083 ft | 521 kts | 140° |
| 2026-05-05 10:43 | 33.31845 | 29.19207 | 35069 ft | 522 kts | 140° |
| 2026-05-05 10:44 | 33.26496 | 29.25142 | 35094 ft | 526 kts | 140° |
| 2026-05-05 10:44 | 33.21134 | 29.31083 | 35083 ft | 525 kts | 140° |
| 2026-05-05 10:45 | 33.15778 | 29.37009 | 35084 ft | 525 kts | 141° |
| 2026-05-05 10:45 | 33.10424 | 29.42921 | 35086 ft | 525 kts | 141° |
| 2026-05-05 10:46 | 33.05065 | 29.48827 | 35084 ft | 524 kts | 141° |
| 2026-05-05 10:46 | 32.99706 | 29.54723 | 35072 ft | 525 kts | 141° |
| 2026-05-05 10:47 | 32.94321 | 29.60636 | 35083 ft | 528 kts | 141° |
| 2026-05-05 10:47 | 32.88920 | 29.66557 | 35083 ft | 528 kts | 141° |
| 2026-05-05 10:48 | 32.83518 | 29.72472 | 35083 ft | 528 kts | 141° |
| 2026-05-05 10:48 | 32.78112 | 29.78379 | 35083 ft | 528 kts | 141° |
| 2026-05-05 10:49 | 32.72708 | 29.84274 | 35088 ft | 527 kts | 141° |
| 2026-05-05 10:49 | 32.67306 | 29.90157 | 35054 ft | 526 kts | 141° |
| 2026-05-05 10:50 | 32.62802 | 29.95051 | 35081 ft | 530 kts | 141° |
| 2026-05-05 10:50 | 32.57361 | 30.00957 | 35086 ft | 530 kts | 141° |
| 2026-05-05 10:51 | 32.51916 | 30.06858 | 35083 ft | 530 kts | 142° |
| 2026-05-05 10:51 | 32.46472 | 30.12753 | 35089 ft | 530 kts | 142° |
| 2026-05-05 10:52 | 32.41028 | 30.18623 | 35082 ft | 529 kts | 142° |
| 2026-05-05 10:52 | 32.35583 | 30.24473 | 35083 ft | 529 kts | 142° |
| 2026-05-05 10:53 | 32.30133 | 30.30321 | 35086 ft | 530 kts | 142° |
| 2026-05-05 10:53 | 32.24668 | 30.36179 | 35089 ft | 531 kts | 142° |
| 2026-05-05 10:54 | 32.19201 | 30.42034 | 35086 ft | 530 kts | 142° |
| 2026-05-05 10:54 | 32.13733 | 30.47878 | 35082 ft | 530 kts | 142° |
| 2026-05-05 10:55 | 32.08261 | 30.53715 | 35086 ft | 530 kts | 142° |
| 2026-05-05 10:55 | 32.02793 | 30.59538 | 35085 ft | 530 kts | 142° |
| 2026-05-05 10:56 | 31.97318 | 30.65359 | 35076 ft | 530 kts | 142° |
| 2026-05-05 10:56 | 31.91848 | 30.71165 | 35088 ft | 530 kts | 142° |
| 2026-05-05 10:57 | 31.86371 | 30.76969 | 35083 ft | 530 kts | 142° |
| 2026-05-05 10:57 | 31.80895 | 30.82763 | 35083 ft | 529 kts | 142° |
| 2026-05-05 10:58 | 31.75436 | 30.88530 | 34937 ft | 521 kts | 142° |
| 2026-05-05 10:58 | 31.72768 | 30.91352 | 34740 ft | 511 kts | 142° |
| 2026-05-05 10:58 | 31.70142 | 30.94126 | 34268 ft | 508 kts | 143° |
| 2026-05-05 10:58 | 31.67492 | 30.96912 | 33260 ft | 515 kts | 143° |
| 2026-05-05 10:59 | 31.64804 | 30.99732 | 32325 ft | 521 kts | 143° |
| 2026-05-05 10:59 | 31.62092 | 31.02576 | 31413 ft | 525 kts | 142° |
| 2026-05-05 10:59 | 31.59394 | 31.05406 | 30518 ft | 530 kts | 142° |
| 2026-05-05 10:59 | 31.56639 | 31.08283 | 29696 ft | 529 kts | 143° |
| 2026-05-05 11:00 | 31.53647 | 31.10689 | 28999 ft | 515 kts | 158° |
| 2026-05-05 11:00 | 31.50357 | 31.12149 | 28345 ft | 497 kts | 173° |
| 2026-05-05 11:00 | 31.46986 | 31.12765 | 27719 ft | 487 kts | 178° |
| 2026-05-05 11:00 | 31.43647 | 31.13362 | 27119 ft | 484 kts | 176° |
| 2026-05-05 11:01 | 31.40341 | 31.14010 | 26491 ft | 479 kts | 176° |
| 2026-05-05 11:01 | 31.37063 | 31.14672 | 25786 ft | 478 kts | 176° |
| 2026-05-05 11:01 | 31.33794 | 31.15327 | 25161 ft | 474 kts | 176° |
| 2026-05-05 11:01 | 31.30561 | 31.15967 | 24608 ft | 469 kts | 176° |
| 2026-05-05 11:02 | 31.27355 | 31.16592 | 24043 ft | 465 kts | 176° |
| 2026-05-05 11:02 | 31.24183 | 31.17202 | 23451 ft | 460 kts | 176° |
| 2026-05-05 11:02 | 31.21034 | 31.17808 | 22772 ft | 456 kts | 175° |
| 2026-05-05 11:02 | 31.17919 | 31.18404 | 22114 ft | 451 kts | 175° |
| 2026-05-05 11:03 | 31.14837 | 31.18990 | 21464 ft | 447 kts | 176° |
| 2026-05-05 11:03 | 31.11777 | 31.19570 | 20771 ft | 444 kts | 176° |
| 2026-05-05 11:03 | 31.08738 | 31.20144 | 20173 ft | 440 kts | 175° |
| 2026-05-05 11:03 | 31.05737 | 31.20713 | 19600 ft | 435 kts | 175° |
| 2026-05-05 11:04 | 31.02767 | 31.21276 | 19006 ft | 430 kts | 175° |
| 2026-05-05 11:04 | 30.99828 | 31.21833 | 18457 ft | 425 kts | 175° |
| 2026-05-05 11:04 | 30.96919 | 31.22384 | 17809 ft | 421 kts | 174° |
| 2026-05-05 11:04 | 30.94040 | 31.22929 | 17133 ft | 418 kts | 174° |
| 2026-05-05 11:05 | 30.91182 | 31.23470 | 16467 ft | 415 kts | 174° |
| 2026-05-05 11:05 | 30.88347 | 31.24007 | 15808 ft | 411 kts | 174° |
| 2026-05-05 11:05 | 30.85533 | 31.24538 | 15188 ft | 407 kts | 174° |
| 2026-05-05 11:05 | 30.82750 | 31.25063 | 14591 ft | 403 kts | 174° |
| 2026-05-05 11:06 | 30.79992 | 31.25583 | 14010 ft | 399 kts | 174° |
| 2026-05-05 11:06 | 30.77267 | 31.26096 | 13352 ft | 396 kts | 174° |
| 2026-05-05 11:06 | 30.74558 | 31.26607 | 12645 ft | 393 kts | 174° |
| 2026-05-05 11:06 | 30.71865 | 31.27115 | 11957 ft | 391 kts | 173° |
| 2026-05-05 11:07 | 30.69192 | 31.27618 | 11381 ft | 386 kts | 173° |
| 2026-05-05 11:07 | 30.66585 | 31.28110 | 11108 ft | 372 kts | 173° |
| 2026-05-05 11:07 | 30.64097 | 31.28581 | 11050 ft | 352 kts | 173° |
| 2026-05-05 11:07 | 30.61750 | 31.29028 | 11056 ft | 332 kts | 173° |
| 2026-05-05 11:08 | 30.59526 | 31.29451 | 11055 ft | 318 kts | 174° |
| 2026-05-05 11:08 | 30.57351 | 31.29859 | 11059 ft | 316 kts | 174° |
| 2026-05-05 11:08 | 30.55177 | 31.30086 | 11030 ft | 311 kts | 185° |
| 2026-05-05 11:08 | 30.53064 | 31.29808 | 10677 ft | 304 kts | 193° |
| 2026-05-05 11:09 | 30.50973 | 31.29372 | 10174 ft | 307 kts | 194° |
| 2026-05-05 11:09 | 30.48877 | 31.28911 | 9700 ft | 307 kts | 194° |
| 2026-05-05 11:09 | 30.46784 | 31.28444 | 9278 ft | 304 kts | 194° |
| 2026-05-05 11:09 | 30.44720 | 31.27977 | 8898 ft | 300 kts | 194° |
| 2026-05-05 11:10 | 30.42685 | 31.27511 | 8527 ft | 296 kts | 194° |
| 2026-05-05 11:10 | 30.40683 | 31.27047 | 8188 ft | 292 kts | 194° |
| 2026-05-05 11:10 | 30.38700 | 31.26572 | 7745 ft | 291 kts | 194° |
| 2026-05-05 11:10 | 30.36725 | 31.26085 | 7348 ft | 289 kts | 195° |
| 2026-05-05 11:11 | 30.34770 | 31.25605 | 6941 ft | 286 kts | 195° |
| 2026-05-05 11:11 | 30.32821 | 31.25127 | 6495 ft | 286 kts | 195° |
| 2026-05-05 11:11 | 30.30884 | 31.24649 | 6110 ft | 283 kts | 194° |
| 2026-05-05 11:11 | 30.28978 | 31.24166 | 5741 ft | 279 kts | 195° |
| 2026-05-05 11:12 | 30.27083 | 31.23704 | 5312 ft | 278 kts | 195° |
| 2026-05-05 11:12 | 30.25199 | 31.23245 | 4900 ft | 275 kts | 195° |
| 2026-05-05 11:12 | 30.23368 | 31.22789 | 4577 ft | 271 kts | 195° |
| 2026-05-05 11:12 | 30.21529 | 31.22337 | 4140 ft | 270 kts | 194° |
| 2026-05-05 11:13 | 30.19688 | 31.21899 | 3693 ft | 270 kts | 193° |
| 2026-05-05 11:13 | 30.17857 | 31.21463 | 3517 ft | 268 kts | 195° |
| 2026-05-05 11:13 | 30.16024 | 31.21022 | 3483 ft | 270 kts | 194° |
| 2026-05-05 11:13 | 30.14181 | 31.20580 | 3486 ft | 270 kts | 194° |
| 2026-05-05 11:14 | 30.12327 | 31.20130 | 3484 ft | 268 kts | 195° |
| 2026-05-05 11:14 | 30.10518 | 31.19708 | 3481 ft | 266 kts | 194° |
| 2026-05-05 11:14 | 30.08763 | 31.19288 | 3415 ft | 251 kts | 195° |
| 2026-05-05 11:14 | 30.07078 | 31.18905 | 3330 ft | 242 kts | 195° |
| 2026-05-05 11:15 | 30.05461 | 31.18553 | 3251 ft | 232 kts | 195° |
| 2026-05-05 11:15 | 30.03885 | 31.18391 | 3164 ft | 228 kts | 175° |
| 2026-05-05 11:15 | 30.02425 | 31.19032 | 2930 ft | 224 kts | 150° |
| 2026-05-05 11:15 | 30.01162 | 31.20061 | 2555 ft | 222 kts | 139° |
| 2026-05-05 11:16 | 30.00362 | 31.21571 | 2141 ft | 223 kts | 103° |
| 2026-05-05 11:16 | 30.00232 | 31.23344 | 1997 ft | 223 kts | 86° |
| 2026-05-05 11:16 | 30.00281 | 31.25128 | 1988 ft | 220 kts | 84° |
| 2026-05-05 11:16 | 30.00448 | 31.26874 | 1992 ft | 219 kts | 75° |
| 2026-05-05 11:17 | 30.01056 | 31.28408 | 1989 ft | 201 kts | 48° |
| 2026-05-05 11:17 | 30.01948 | 31.29506 | 1975 ft | 174 kts | 38° |
| 2026-05-05 11:17 | 30.02761 | 31.30398 | 1973 ft | 150 kts | 38° |
| 2026-05-05 11:17 | 30.03473 | 31.31203 | 1984 ft | 140 kts | 40° |
| 2026-05-05 11:18 | 30.04112 | 31.32058 | 1986 ft | 140 kts | 45° |
| 2026-05-05 11:18 | 30.04745 | 31.32908 | 1993 ft | 139 kts | 44° |
| 2026-05-05 11:18 | 30.05379 | 31.33749 | 1990 ft | 139 kts | 43° |
| 2026-05-05 11:18 | 30.06017 | 31.34597 | 1861 ft | 141 kts | 43° |
| 2026-05-05 11:19 | 30.06658 | 31.35447 | 1693 ft | 140 kts | 46° |
| 2026-05-05 11:19 | 30.07289 | 31.36286 | 1475 ft | 138 kts | 44° |
| 2026-05-05 11:19 | 30.07922 | 31.37124 | 1262 ft | 138 kts | 42° |
| 2026-05-05 11:19 | 30.08552 | 31.37978 | 998 ft | 140 kts | 41° |
| 2026-05-05 11:20 | 30.09187 | 31.38825 | 696 ft | 137 kts | 40° |
| 2026-05-05 11:20 | 30.09833 | 31.39653 | 463 ft | 141 kts | 44° |
| 2026-05-05 11:20 | 30.10455 | 31.40473 | 384 ft | 118 kts | 49° |
| 2026-05-05 11:20 | 30.10887 | 31.41050 | 378 ft | 72 kts | 49° |
| 2026-05-05 11:21 | 30.11103 | 31.41337 | 381 ft | 35 kts | 49° |
| 2026-05-05 11:21 | 30.11277 | 31.41525 | 380 ft | 33 kts | 32° |
| 2026-05-05 11:21 | 30.11445 | 31.41611 | 381 ft | 19 kts | 20° |
| 2026-05-05 11:21 | 30.11503 | 31.41629 | 381 ft | 0 kts | 10° |
| 2026-05-05 11:22 | 30.11513 | 31.41629 | 381 ft | 5 kts | 359° |
| 2026-05-05 11:22 | 30.11552 | 31.41598 | 381 ft | 6 kts | 300° |
| 2026-05-05 11:22 | 30.11554 | 31.41563 | 381 ft | 3 kts | 260° |
| 2026-05-05 11:23 | 30.11550 | 31.41549 | 381 ft | 0 kts | 254° |
| 2026-05-05 11:23 | 30.11535 | 31.41519 | 381 ft | 8 kts | 236° |
| 2026-05-05 11:24 | 30.11505 | 31.41476 | 381 ft | 6 kts | 229° |
| 2026-05-05 11:24 | 30.11481 | 31.41444 | 381 ft | 5 kts | 230° |
| 2026-05-05 11:24 | 30.11456 | 31.41409 | 381 ft | 6 kts | 229° |
| 2026-05-05 11:24 | 30.11422 | 31.41363 | 381 ft | 9 kts | 229° |
| 2026-05-05 11:25 | 30.11378 | 31.41304 | 381 ft | 11 kts | 229° |
| 2026-05-05 11:25 | 30.11326 | 31.41236 | 381 ft | 12 kts | 229° |
| 2026-05-05 11:25 | 30.11267 | 31.41158 | 381 ft | 13 kts | 229° |
| 2026-05-05 11:25 | 30.11212 | 31.41085 | 381 ft | 11 kts | 229° |
| 2026-05-05 11:26 | 30.11164 | 31.41021 | 381 ft | 10 kts | 231° |
| 2026-05-05 11:26 | 30.11117 | 31.40956 | 381 ft | 10 kts | 229° |
| 2026-05-05 11:26 | 30.11072 | 31.40895 | 381 ft | 10 kts | 231° |
| 2026-05-05 11:26 | 30.11069 | 31.40832 | 381 ft | 8 kts | 291° |
| 2026-05-05 11:27 | 30.11082 | 31.40769 | 381 ft | 8 kts | 262° |
| 2026-05-05 11:27 | 30.11052 | 31.40714 | 381 ft | 11 kts | 233° |
| 2026-05-05 11:27 | 30.11030 | 31.40646 | 381 ft | 7 kts | 287° |
| 2026-05-05 11:27 | 30.11061 | 31.40598 | 381 ft | 7 kts | 315° |
| 2026-05-05 11:28 | 30.11081 | 31.40555 | 381 ft | 5 kts | 279° |
| 2026-05-05 11:28 | 30.11084 | 31.40513 | 380 ft | 5 kts | 272° |
| 2026-05-05 11:28 | 30.11084 | 31.40476 | 380 ft | 3 kts | 270° |
| 2026-05-05 11:28 | 30.11084 | 31.40472 | 380 ft | 0 kts | 270° |
| 2026-05-05 11:29 | 30.11084 | 31.40467 | 380 ft | 0 kts | 270° |